sensor_id;sensor_type;location;lat;lon;timestamp;P1;durP1;ratioP1;P2;durP2;ratioP2
8502;SDS011;4289;48.664;12.700;2022-11-20T00:02:46;0.10;;;0.10;;
8502;SDS011;4289;48.664;12.700;2022-11-20T00:06:09;0.10;;;0.10;;
8502;SDS011;4289;48.664;12.700;2022-11-20T00:09:37;0.10;;;0.10;;
8502;SDS011;4289;48.664;12.700;2022-11-20T00:12:59;0.20;;;0.20;;
8502;SDS011;4289;48.664;12.700;2022-11-20T00:16:25;0.60;;;0.60;;
8502;SDS011;4289;48.664;12.700;2022-11-20T00:19:48;1.83;;;1.73;;
8502;SDS011;4289;48.664;12.700;2022-11-20T00:23:10;2.00;;;1.90;;
8502;SDS011;4289;48.664;12.700;2022-11-20T00:26:34;1.50;;;1.50;;
8502;SDS011;4289;48.664;12.700;2022-11-20T00:29:58;1.60;;;1.60;;
8502;SDS011;4289;48.664;12.700;2022-11-20T00:33:22;1.93;;;1.83;;
8502;SDS011;4289;48.664;12.700;2022-11-20T00:36:44;1.30;;;1.30;;
8502;SDS011;4289;48.664;12.700;2022-11-20T00:40:07;0.90;;;0.90;;
8502;SDS011;4289;48.664;12.700;2022-11-20T00:43:31;0.40;;;0.40;;
8502;SDS011;4289;48.664;12.700;2022-11-20T00:46:53;0.33;;;0.33;;
8502;SDS011;4289;48.664;12.700;2022-11-20T00:50:17;0.30;;;0.30;;
8502;SDS011;4289;48.664;12.700;2022-11-20T00:53:40;0.60;;;0.60;;
8502;SDS011;4289;48.664;12.700;2022-11-20T00:57:03;0.35;;;0.35;;
8502;SDS011;4289;48.664;12.700;2022-11-20T01:00:25;1.00;;;1.00;;
8502;SDS011;4289;48.664;12.700;2022-11-20T01:03:52;0.83;;;0.83;;
8502;SDS011;4289;48.664;12.700;2022-11-20T01:07:17;1.50;;;1.50;;
8502;SDS011;4289;48.664;12.700;2022-11-20T01:10:39;0.87;;;0.87;;
8502;SDS011;4289;48.664;12.700;2022-11-20T01:14:03;0.97;;;0.97;;
8502;SDS011;4289;48.664;12.700;2022-11-20T01:17:26;0.80;;;0.80;;
8502;SDS011;4289;48.664;12.700;2022-11-20T01:20:48;0.20;;;0.20;;
8502;SDS011;4289;48.664;12.700;2022-11-20T01:24:13;0.47;;;0.47;;
8502;SDS011;4289;48.664;12.700;2022-11-20T01:27:37;0.70;;;0.70;;
8502;SDS011;4289;48.664;12.700;2022-11-20T01:30:59;1.10;;;1.10;;
8502;SDS011;4289;48.664;12.700;2022-11-20T01:34:22;0.60;;;0.60;;
8502;SDS011;4289;48.664;12.700;2022-11-20T01:37:45;0.30;;;0.30;;
8502;SDS011;4289;48.664;12.700;2022-11-20T01:41:09;0.50;;;0.50;;
8502;SDS011;4289;48.664;12.700;2022-11-20T01:44:55;0.40;;;0.40;;
8502;SDS011;4289;48.664;12.700;2022-11-20T01:48:19;0.47;;;0.47;;
8502;SDS011;4289;48.664;12.700;2022-11-20T01:51:43;0.50;;;0.50;;
8502;SDS011;4289;48.664;12.700;2022-11-20T01:55:07;0.70;;;0.70;;
8502;SDS011;4289;48.664;12.700;2022-11-20T01:58:33;0.40;;;0.40;;
8502;SDS011;4289;48.664;12.700;2022-11-20T02:01:58;0.70;;;0.70;;
8502;SDS011;4289;48.664;12.700;2022-11-20T02:05:22;0.43;;;0.43;;
8502;SDS011;4289;48.664;12.700;2022-11-20T02:08:46;0.30;;;0.30;;
8502;SDS011;4289;48.664;12.700;2022-11-20T02:12:09;0.40;;;0.40;;
8502;SDS011;4289;48.664;12.700;2022-11-20T02:19:31;0.80;;;0.80;;
8502;SDS011;4289;48.664;12.700;2022-11-20T02:22:54;0.30;;;0.30;;
8502;SDS011;4289;48.664;12.700;2022-11-20T02:26:19;0.50;;;0.50;;
8502;SDS011;4289;48.664;12.700;2022-11-20T02:33:30;0.20;;;0.20;;
8502;SDS011;4289;48.664;12.700;2022-11-20T02:36:53;0.20;;;0.20;;
8502;SDS011;4289;48.664;12.700;2022-11-20T02:40:15;0.20;;;0.20;;
8502;SDS011;4289;48.664;12.700;2022-11-20T02:43:39;0.20;;;0.20;;
8502;SDS011;4289;48.664;12.700;2022-11-20T02:47:01;0.20;;;0.20;;
8502;SDS011;4289;48.664;12.700;2022-11-20T02:50:24;0.10;;;0.10;;
8502;SDS011;4289;48.664;12.700;2022-11-20T02:57:28;0.10;;;0.10;;
8502;SDS011;4289;48.664;12.700;2022-11-20T03:04:30;0.10;;;0.10;;
8502;SDS011;4289;48.664;12.700;2022-11-20T03:07:53;0.10;;;0.10;;
8502;SDS011;4289;48.664;12.700;2022-11-20T03:11:15;0.10;;;0.10;;
8502;SDS011;4289;48.664;12.700;2022-11-20T03:14:38;0.10;;;0.10;;
8502;SDS011;4289;48.664;12.700;2022-11-20T03:18:01;0.10;;;0.10;;
8502;SDS011;4289;48.664;12.700;2022-11-20T03:21:24;0.20;;;0.20;;
8502;SDS011;4289;48.664;12.700;2022-11-20T03:24:46;0.10;;;0.10;;
8502;SDS011;4289;48.664;12.700;2022-11-20T03:28:09;0.10;;;0.10;;
8502;SDS011;4289;48.664;12.700;2022-11-20T03:31:32;0.10;;;0.10;;
8502;SDS011;4289;48.664;12.700;2022-11-20T03:34:56;0.10;;;0.10;;
8502;SDS011;4289;48.664;12.700;2022-11-20T03:38:19;0.10;;;0.10;;
8502;SDS011;4289;48.664;12.700;2022-11-20T03:41:41;0.10;;;0.10;;
8502;SDS011;4289;48.664;12.700;2022-11-20T03:45:05;0.10;;;0.10;;
8502;SDS011;4289;48.664;12.700;2022-11-20T03:48:28;0.10;;;0.10;;
8502;SDS011;4289;48.664;12.700;2022-11-20T03:51:51;0.10;;;0.10;;
8502;SDS011;4289;48.664;12.700;2022-11-20T03:55:14;0.10;;;0.10;;
8502;SDS011;4289;48.664;12.700;2022-11-20T03:58:37;0.10;;;0.10;;
8502;SDS011;4289;48.664;12.700;2022-11-20T04:02:00;0.10;;;0.10;;
8502;SDS011;4289;48.664;12.700;2022-11-20T04:05:22;0.10;;;0.10;;
8502;SDS011;4289;48.664;12.700;2022-11-20T04:08:46;0.10;;;0.10;;
8502;SDS011;4289;48.664;12.700;2022-11-20T04:12:08;0.10;;;0.10;;
8502;SDS011;4289;48.664;12.700;2022-11-20T04:15:31;0.10;;;0.10;;
8502;SDS011;4289;48.664;12.700;2022-11-20T04:18:53;0.10;;;0.10;;
8502;SDS011;4289;48.664;12.700;2022-11-20T04:22:16;0.10;;;0.10;;
8502;SDS011;4289;48.664;12.700;2022-11-20T04:25:40;0.10;;;0.10;;
8502;SDS011;4289;48.664;12.700;2022-11-20T04:29:02;0.10;;;0.10;;
8502;SDS011;4289;48.664;12.700;2022-11-20T04:32:25;0.10;;;0.10;;
8502;SDS011;4289;48.664;12.700;2022-11-20T04:35:47;0.10;;;0.10;;
8502;SDS011;4289;48.664;12.700;2022-11-20T04:39:13;0.10;;;0.10;;
8502;SDS011;4289;48.664;12.700;2022-11-20T04:42:38;0.20;;;0.20;;
8502;SDS011;4289;48.664;12.700;2022-11-20T04:46:00;0.10;;;0.10;;
8502;SDS011;4289;48.664;12.700;2022-11-20T04:49:22;0.10;;;0.10;;
8502;SDS011;4289;48.664;12.700;2022-11-20T04:52:45;0.10;;;0.10;;
8502;SDS011;4289;48.664;12.700;2022-11-20T04:56:08;0.10;;;0.10;;
8502;SDS011;4289;48.664;12.700;2022-11-20T04:59:32;0.10;;;0.10;;
8502;SDS011;4289;48.664;12.700;2022-11-20T05:03:07;0.10;;;0.10;;
8502;SDS011;4289;48.664;12.700;2022-11-20T05:06:29;0.17;;;0.17;;
8502;SDS011;4289;48.664;12.700;2022-11-20T05:09:51;0.20;;;0.20;;
8502;SDS011;4289;48.664;12.700;2022-11-20T05:13:14;0.10;;;0.10;;
8502;SDS011;4289;48.664;12.700;2022-11-20T05:16:37;0.20;;;0.20;;
8502;SDS011;4289;48.664;12.700;2022-11-20T05:19:59;0.30;;;0.30;;
8502;SDS011;4289;48.664;12.700;2022-11-20T05:23:30;0.70;;;0.70;;
8502;SDS011;4289;48.664;12.700;2022-11-20T05:27:16;1.00;;;1.00;;
8502;SDS011;4289;48.664;12.700;2022-11-20T05:30:38;1.83;;;1.73;;
8502;SDS011;4289;48.664;12.700;2022-11-20T05:34:02;0.63;;;0.63;;
8502;SDS011;4289;48.664;12.700;2022-11-20T05:37:24;2.07;;;1.97;;
8502;SDS011;4289;48.664;12.700;2022-11-20T05:40:46;2.40;;;2.30;;
8502;SDS011;4289;48.664;12.700;2022-11-20T05:44:10;0.30;;;0.30;;
8502;SDS011;4289;48.664;12.700;2022-11-20T05:47:32;2.30;;;2.20;;
8502;SDS011;4289;48.664;12.700;2022-11-20T05:50:57;1.50;;;1.50;;
8502;SDS011;4289;48.664;12.700;2022-11-20T05:54:20;0.80;;;0.80;;
8502;SDS011;4289;48.664;12.700;2022-11-20T05:57:42;0.60;;;0.60;;
8502;SDS011;4289;48.664;12.700;2022-11-20T06:01:06;0.97;;;0.97;;
8502;SDS011;4289;48.664;12.700;2022-11-20T06:04:29;0.30;;;0.30;;
8502;SDS011;4289;48.664;12.700;2022-11-20T06:07:53;0.20;;;0.20;;
8502;SDS011;4289;48.664;12.700;2022-11-20T06:11:15;0.10;;;0.10;;
8502;SDS011;4289;48.664;12.700;2022-11-20T06:14:38;0.10;;;0.10;;
8502;SDS011;4289;48.664;12.700;2022-11-20T06:18:04;0.10;;;0.10;;
8502;SDS011;4289;48.664;12.700;2022-11-20T06:21:30;0.10;;;0.10;;
8502;SDS011;4289;48.664;12.700;2022-11-20T06:24:54;0.10;;;0.10;;
8502;SDS011;4289;48.664;12.700;2022-11-20T06:32:00;0.10;;;0.10;;
8502;SDS011;4289;48.664;12.700;2022-11-20T06:35:22;0.10;;;0.10;;
8502;SDS011;4289;48.664;12.700;2022-11-20T06:38:45;0.10;;;0.10;;
8502;SDS011;4289;48.664;12.700;2022-11-20T06:42:09;0.10;;;0.10;;
8502;SDS011;4289;48.664;12.700;2022-11-20T06:45:31;0.10;;;0.10;;
8502;SDS011;4289;48.664;12.700;2022-11-20T06:48:54;0.10;;;0.10;;
8502;SDS011;4289;48.664;12.700;2022-11-20T06:52:16;0.10;;;0.10;;
8502;SDS011;4289;48.664;12.700;2022-11-20T06:55:41;0.10;;;0.10;;
8502;SDS011;4289;48.664;12.700;2022-11-20T06:59:05;0.10;;;0.10;;
8502;SDS011;4289;48.664;12.700;2022-11-20T07:02:28;0.10;;;0.10;;
8502;SDS011;4289;48.664;12.700;2022-11-20T07:05:50;0.10;;;0.10;;
8502;SDS011;4289;48.664;12.700;2022-11-20T07:09:12;0.10;;;0.10;;
8502;SDS011;4289;48.664;12.700;2022-11-20T07:12:35;0.10;;;0.10;;
8502;SDS011;4289;48.664;12.700;2022-11-20T07:16:00;0.10;;;0.10;;
8502;SDS011;4289;48.664;12.700;2022-11-20T07:19:23;0.13;;;0.13;;
8502;SDS011;4289;48.664;12.700;2022-11-20T07:22:45;0.10;;;0.10;;
8502;SDS011;4289;48.664;12.700;2022-11-20T07:26:08;0.10;;;0.10;;
8502;SDS011;4289;48.664;12.700;2022-11-20T07:29:31;0.10;;;0.10;;
8502;SDS011;4289;48.664;12.700;2022-11-20T07:32:55;0.10;;;0.10;;
8502;SDS011;4289;48.664;12.700;2022-11-20T07:36:17;0.10;;;0.10;;
8502;SDS011;4289;48.664;12.700;2022-11-20T07:39:40;0.10;;;0.10;;
8502;SDS011;4289;48.664;12.700;2022-11-20T07:43:02;0.10;;;0.10;;
8502;SDS011;4289;48.664;12.700;2022-11-20T07:46:24;0.10;;;0.10;;
8502;SDS011;4289;48.664;12.700;2022-11-20T07:49:48;0.10;;;0.10;;
8502;SDS011;4289;48.664;12.700;2022-11-20T07:53:10;0.10;;;0.10;;
8502;SDS011;4289;48.664;12.700;2022-11-20T07:56:33;0.00;;;0.00;;
8502;SDS011;4289;48.664;12.700;2022-11-20T07:59:56;0.10;;;0.10;;
8502;SDS011;4289;48.664;12.700;2022-11-20T08:03:18;0.10;;;0.10;;
8502;SDS011;4289;48.664;12.700;2022-11-20T08:06:42;0.10;;;0.10;;
8502;SDS011;4289;48.664;12.700;2022-11-20T08:10:04;0.10;;;0.10;;
8502;SDS011;4289;48.664;12.700;2022-11-20T08:13:27;0.10;;;0.10;;
8502;SDS011;4289;48.664;12.700;2022-11-20T08:17:07;0.10;;;0.10;;
8502;SDS011;4289;48.664;12.700;2022-11-20T08:20:29;0.10;;;0.10;;
8502;SDS011;4289;48.664;12.700;2022-11-20T08:23:53;0.10;;;0.10;;
8502;SDS011;4289;48.664;12.700;2022-11-20T08:27:15;0.10;;;0.10;;
8502;SDS011;4289;48.664;12.700;2022-11-20T08:34:34;0.10;;;0.10;;
8502;SDS011;4289;48.664;12.700;2022-11-20T08:37:57;0.10;;;0.10;;
8502;SDS011;4289;48.664;12.700;2022-11-20T08:41:21;0.10;;;0.10;;
8502;SDS011;4289;48.664;12.700;2022-11-20T08:44:47;0.10;;;0.10;;
8502;SDS011;4289;48.664;12.700;2022-11-20T08:48:09;0.10;;;0.10;;
8502;SDS011;4289;48.664;12.700;2022-11-20T08:51:31;0.10;;;0.10;;
8502;SDS011;4289;48.664;12.700;2022-11-20T08:54:53;0.10;;;0.10;;
8502;SDS011;4289;48.664;12.700;2022-11-20T08:58:17;0.03;;;0.03;;
8502;SDS011;4289;48.664;12.700;2022-11-20T09:01:39;0.10;;;0.10;;
8502;SDS011;4289;48.664;12.700;2022-11-20T09:05:02;0.10;;;0.10;;
8502;SDS011;4289;48.664;12.700;2022-11-20T09:08:25;0.10;;;0.10;;
8502;SDS011;4289;48.664;12.700;2022-11-20T09:11:47;0.10;;;0.10;;
8502;SDS011;4289;48.664;12.700;2022-11-20T09:15:12;0.00;;;0.00;;
8502;SDS011;4289;48.664;12.700;2022-11-20T09:18:34;0.10;;;0.10;;
8502;SDS011;4289;48.664;12.700;2022-11-20T09:21:57;0.10;;;0.10;;
8502;SDS011;4289;48.664;12.700;2022-11-20T09:25:20;0.10;;;0.10;;
8502;SDS011;4289;48.664;12.700;2022-11-20T09:28:42;0.07;;;0.07;;
8502;SDS011;4289;48.664;12.700;2022-11-20T09:32:06;0.00;;;0.00;;
8502;SDS011;4289;48.664;12.700;2022-11-20T09:35:28;0.10;;;0.10;;
8502;SDS011;4289;48.664;12.700;2022-11-20T09:38:52;0.10;;;0.10;;
8502;SDS011;4289;48.664;12.700;2022-11-20T09:42:21;0.10;;;0.10;;
8502;SDS011;4289;48.664;12.700;2022-11-20T09:46:01;0.10;;;0.10;;
8502;SDS011;4289;48.664;12.700;2022-11-20T09:49:34;0.10;;;0.10;;
8502;SDS011;4289;48.664;12.700;2022-11-20T09:53:11;0.10;;;0.10;;
8502;SDS011;4289;48.664;12.700;2022-11-20T09:56:36;0.10;;;0.10;;
8502;SDS011;4289;48.664;12.700;2022-11-20T10:00:00;0.10;;;0.10;;
8502;SDS011;4289;48.664;12.700;2022-11-20T10:03:26;0.10;;;0.10;;
8502;SDS011;4289;48.664;12.700;2022-11-20T10:07:02;0.10;;;0.10;;
8502;SDS011;4289;48.664;12.700;2022-11-20T10:10:31;0.10;;;0.10;;
8502;SDS011;4289;48.664;12.700;2022-11-20T10:13:58;0.10;;;0.10;;
8502;SDS011;4289;48.664;12.700;2022-11-20T10:17:29;0.00;;;0.00;;
8502;SDS011;4289;48.664;12.700;2022-11-20T10:21:02;0.10;;;0.10;;
8502;SDS011;4289;48.664;12.700;2022-11-20T10:24:39;0.10;;;0.10;;
8502;SDS011;4289;48.664;12.700;2022-11-20T10:28:21;0.10;;;0.10;;
8502;SDS011;4289;48.664;12.700;2022-11-20T10:31:50;0.10;;;0.10;;
8502;SDS011;4289;48.664;12.700;2022-11-20T10:35:18;0.00;;;0.00;;
8502;SDS011;4289;48.664;12.700;2022-11-20T10:38:43;0.10;;;0.10;;
8502;SDS011;4289;48.664;12.700;2022-11-20T10:42:12;0.10;;;0.10;;
8502;SDS011;4289;48.664;12.700;2022-11-20T10:45:40;0.10;;;0.10;;
8502;SDS011;4289;48.664;12.700;2022-11-20T10:49:17;0.10;;;0.10;;
8502;SDS011;4289;48.664;12.700;2022-11-20T10:52:42;0.10;;;0.10;;
8502;SDS011;4289;48.664;12.700;2022-11-20T10:56:22;0.03;;;0.03;;
8502;SDS011;4289;48.664;12.700;2022-11-20T10:59:57;0.00;;;0.00;;
8502;SDS011;4289;48.664;12.700;2022-11-20T11:03:23;0.10;;;0.10;;
8502;SDS011;4289;48.664;12.700;2022-11-20T11:06:47;0.10;;;0.10;;
8502;SDS011;4289;48.664;12.700;2022-11-20T11:10:14;0.10;;;0.10;;
8502;SDS011;4289;48.664;12.700;2022-11-20T11:13:38;0.10;;;0.10;;
8502;SDS011;4289;48.664;12.700;2022-11-20T11:17:02;0.10;;;0.10;;
8502;SDS011;4289;48.664;12.700;2022-11-20T11:20:25;0.10;;;0.10;;
8502;SDS011;4289;48.664;12.700;2022-11-20T11:23:48;0.10;;;0.10;;
8502;SDS011;4289;48.664;12.700;2022-11-20T11:27:20;0.10;;;0.10;;
8502;SDS011;4289;48.664;12.700;2022-11-20T11:30:44;0.10;;;0.10;;
8502;SDS011;4289;48.664;12.700;2022-11-20T11:34:12;0.10;;;0.10;;
8502;SDS011;4289;48.664;12.700;2022-11-20T11:37:36;0.10;;;0.10;;
8502;SDS011;4289;48.664;12.700;2022-11-20T11:40:59;0.10;;;0.10;;
8502;SDS011;4289;48.664;12.700;2022-11-20T11:44:23;0.10;;;0.10;;
8502;SDS011;4289;48.664;12.700;2022-11-20T11:48:07;0.00;;;0.00;;
8502;SDS011;4289;48.664;12.700;2022-11-20T11:51:34;0.10;;;0.10;;
8502;SDS011;4289;48.664;12.700;2022-11-20T11:55:00;0.10;;;0.10;;
8502;SDS011;4289;48.664;12.700;2022-11-20T11:58:30;0.10;;;0.10;;
8502;SDS011;4289;48.664;12.700;2022-11-20T12:02:02;0.10;;;0.10;;
8502;SDS011;4289;48.664;12.700;2022-11-20T12:05:55;0.10;;;0.10;;
8502;SDS011;4289;48.664;12.700;2022-11-20T12:09:21;0.10;;;0.10;;
8502;SDS011;4289;48.664;12.700;2022-11-20T12:12:51;0.10;;;0.10;;
8502;SDS011;4289;48.664;12.700;2022-11-20T12:16:18;0.10;;;0.10;;
8502;SDS011;4289;48.664;12.700;2022-11-20T12:19:41;0.10;;;0.10;;
8502;SDS011;4289;48.664;12.700;2022-11-20T12:23:05;0.10;;;0.10;;
8502;SDS011;4289;48.664;12.700;2022-11-20T12:26:37;0.10;;;0.10;;
8502;SDS011;4289;48.664;12.700;2022-11-20T12:30:08;0.10;;;0.10;;
8502;SDS011;4289;48.664;12.700;2022-11-20T12:33:39;0.10;;;0.10;;
8502;SDS011;4289;48.664;12.700;2022-11-20T12:37:10;0.10;;;0.10;;
8502;SDS011;4289;48.664;12.700;2022-11-20T12:40:41;0.10;;;0.10;;
8502;SDS011;4289;48.664;12.700;2022-11-20T12:44:12;0.10;;;0.10;;
8502;SDS011;4289;48.664;12.700;2022-11-20T12:48:05;0.00;;;0.00;;
8502;SDS011;4289;48.664;12.700;2022-11-20T12:55:46;0.10;;;0.10;;
8502;SDS011;4289;48.664;12.700;2022-11-20T12:59:18;0.03;;;0.03;;
8502;SDS011;4289;48.664;12.700;2022-11-20T13:06:31;0.10;;;0.10;;
8502;SDS011;4289;48.664;12.700;2022-11-20T13:09:54;0.10;;;0.10;;
8502;SDS011;4289;48.664;12.700;2022-11-20T13:13:18;0.10;;;0.10;;
8502;SDS011;4289;48.664;12.700;2022-11-20T13:16:50;0.10;;;0.10;;
8502;SDS011;4289;48.664;12.700;2022-11-20T13:20:19;0.10;;;0.10;;
8502;SDS011;4289;48.664;12.700;2022-11-20T13:23:41;0.10;;;0.10;;
8502;SDS011;4289;48.664;12.700;2022-11-20T13:30:51;0.07;;;0.07;;
8502;SDS011;4289;48.664;12.700;2022-11-20T13:34:22;0.10;;;0.10;;
8502;SDS011;4289;48.664;12.700;2022-11-20T13:37:46;0.10;;;0.10;;
8502;SDS011;4289;48.664;12.700;2022-11-20T13:41:08;0.10;;;0.10;;
8502;SDS011;4289;48.664;12.700;2022-11-20T13:44:46;0.10;;;0.10;;
8502;SDS011;4289;48.664;12.700;2022-11-20T13:48:19;0.10;;;0.10;;
8502;SDS011;4289;48.664;12.700;2022-11-20T13:51:44;0.10;;;0.10;;
8502;SDS011;4289;48.664;12.700;2022-11-20T13:55:13;0.10;;;0.10;;
8502;SDS011;4289;48.664;12.700;2022-11-20T13:58:44;0.10;;;0.10;;
8502;SDS011;4289;48.664;12.700;2022-11-20T14:02:10;0.10;;;0.10;;
8502;SDS011;4289;48.664;12.700;2022-11-20T14:05:35;0.10;;;0.10;;
8502;SDS011;4289;48.664;12.700;2022-11-20T14:09:00;0.10;;;0.10;;
8502;SDS011;4289;48.664;12.700;2022-11-20T14:12:23;0.10;;;0.10;;
8502;SDS011;4289;48.664;12.700;2022-11-20T14:15:56;0.10;;;0.10;;
8502;SDS011;4289;48.664;12.700;2022-11-20T14:19:23;0.10;;;0.10;;
8502;SDS011;4289;48.664;12.700;2022-11-20T14:22:48;0.10;;;0.10;;
8502;SDS011;4289;48.664;12.700;2022-11-20T14:26:13;0.10;;;0.10;;
8502;SDS011;4289;48.664;12.700;2022-11-20T14:29:37;0.10;;;0.10;;
8502;SDS011;4289;48.664;12.700;2022-11-20T14:33:01;0.10;;;0.10;;
8502;SDS011;4289;48.664;12.700;2022-11-20T14:36:24;0.10;;;0.10;;
8502;SDS011;4289;48.664;12.700;2022-11-20T14:39:48;0.10;;;0.10;;
8502;SDS011;4289;48.664;12.700;2022-11-20T14:43:18;0.10;;;0.10;;
8502;SDS011;4289;48.664;12.700;2022-11-20T14:46:43;0.10;;;0.10;;
8502;SDS011;4289;48.664;12.700;2022-11-20T14:50:07;0.10;;;0.10;;
8502;SDS011;4289;48.664;12.700;2022-11-20T14:53:33;0.10;;;0.10;;
8502;SDS011;4289;48.664;12.700;2022-11-20T14:56:56;0.10;;;0.10;;
8502;SDS011;4289;48.664;12.700;2022-11-20T15:00:22;0.10;;;0.10;;
8502;SDS011;4289;48.664;12.700;2022-11-20T15:03:44;0.10;;;0.10;;
8502;SDS011;4289;48.664;12.700;2022-11-20T15:07:07;0.10;;;0.10;;
8502;SDS011;4289;48.664;12.700;2022-11-20T15:10:29;0.10;;;0.10;;
8502;SDS011;4289;48.664;12.700;2022-11-20T15:13:52;0.10;;;0.10;;
8502;SDS011;4289;48.664;12.700;2022-11-20T15:17:17;0.10;;;0.10;;
8502;SDS011;4289;48.664;12.700;2022-11-20T15:20:44;0.10;;;0.10;;
8502;SDS011;4289;48.664;12.700;2022-11-20T15:24:07;0.10;;;0.10;;
8502;SDS011;4289;48.664;12.700;2022-11-20T15:27:32;0.10;;;0.10;;
8502;SDS011;4289;48.664;12.700;2022-11-20T15:30:54;0.10;;;0.10;;
8502;SDS011;4289;48.664;12.700;2022-11-20T15:34:18;0.10;;;0.10;;
8502;SDS011;4289;48.664;12.700;2022-11-20T15:37:41;0.10;;;0.10;;
8502;SDS011;4289;48.664;12.700;2022-11-20T15:41:08;0.10;;;0.10;;
8502;SDS011;4289;48.664;12.700;2022-11-20T15:44:33;0.10;;;0.10;;
8502;SDS011;4289;48.664;12.700;2022-11-20T15:47:59;0.10;;;0.10;;
8502;SDS011;4289;48.664;12.700;2022-11-20T15:51:27;0.10;;;0.10;;
8502;SDS011;4289;48.664;12.700;2022-11-20T15:54:59;0.10;;;0.10;;
8502;SDS011;4289;48.664;12.700;2022-11-20T15:58:25;0.10;;;0.10;;
8502;SDS011;4289;48.664;12.700;2022-11-20T16:02:07;0.10;;;0.10;;
8502;SDS011;4289;48.664;12.700;2022-11-20T16:05:33;0.10;;;0.10;;
8502;SDS011;4289;48.664;12.700;2022-11-20T16:09:08;0.10;;;0.10;;
8502;SDS011;4289;48.664;12.700;2022-11-20T16:12:34;0.10;;;0.10;;
8502;SDS011;4289;48.664;12.700;2022-11-20T16:16:29;0.10;;;0.10;;
8502;SDS011;4289;48.664;12.700;2022-11-20T16:19:52;0.10;;;0.10;;
8502;SDS011;4289;48.664;12.700;2022-11-20T16:23:17;0.10;;;0.10;;
8502;SDS011;4289;48.664;12.700;2022-11-20T16:26:53;0.10;;;0.10;;
8502;SDS011;4289;48.664;12.700;2022-11-20T16:30:16;0.00;;;0.00;;
8502;SDS011;4289;48.664;12.700;2022-11-20T16:33:39;0.10;;;0.10;;
8502;SDS011;4289;48.664;12.700;2022-11-20T16:37:04;0.10;;;0.10;;
8502;SDS011;4289;48.664;12.700;2022-11-20T16:40:36;0.10;;;0.10;;
8502;SDS011;4289;48.664;12.700;2022-11-20T16:44:00;0.10;;;0.10;;
8502;SDS011;4289;48.664;12.700;2022-11-20T16:47:24;0.10;;;0.10;;
8502;SDS011;4289;48.664;12.700;2022-11-20T16:50:47;0.10;;;0.10;;
8502;SDS011;4289;48.664;12.700;2022-11-20T16:54:10;0.10;;;0.10;;
8502;SDS011;4289;48.664;12.700;2022-11-20T16:57:32;0.10;;;0.10;;
8502;SDS011;4289;48.664;12.700;2022-11-20T17:00:56;0.10;;;0.10;;
8502;SDS011;4289;48.664;12.700;2022-11-20T17:04:19;0.10;;;0.10;;
8502;SDS011;4289;48.664;12.700;2022-11-20T17:07:48;0.10;;;0.10;;
8502;SDS011;4289;48.664;12.700;2022-11-20T17:11:13;0.10;;;0.10;;
8502;SDS011;4289;48.664;12.700;2022-11-20T17:14:37;0.17;;;0.17;;
8502;SDS011;4289;48.664;12.700;2022-11-20T17:18:01;0.10;;;0.10;;
8502;SDS011;4289;48.664;12.700;2022-11-20T17:21:24;0.10;;;0.10;;
8502;SDS011;4289;48.664;12.700;2022-11-20T17:24:48;0.10;;;0.10;;
8502;SDS011;4289;48.664;12.700;2022-11-20T17:28:10;0.10;;;0.10;;
8502;SDS011;4289;48.664;12.700;2022-11-20T17:31:33;0.10;;;0.10;;
8502;SDS011;4289;48.664;12.700;2022-11-20T17:34:58;0.10;;;0.10;;
8502;SDS011;4289;48.664;12.700;2022-11-20T17:38:21;0.10;;;0.10;;
8502;SDS011;4289;48.664;12.700;2022-11-20T17:41:43;0.10;;;0.10;;
8502;SDS011;4289;48.664;12.700;2022-11-20T17:45:26;0.10;;;0.10;;
8502;SDS011;4289;48.664;12.700;2022-11-20T17:48:51;0.10;;;0.10;;
8502;SDS011;4289;48.664;12.700;2022-11-20T17:52:16;0.10;;;0.10;;
8502;SDS011;4289;48.664;12.700;2022-11-20T17:55:38;0.10;;;0.10;;
8502;SDS011;4289;48.664;12.700;2022-11-20T17:59:18;0.10;;;0.10;;
8502;SDS011;4289;48.664;12.700;2022-11-20T18:02:41;0.10;;;0.10;;
8502;SDS011;4289;48.664;12.700;2022-11-20T18:06:07;0.10;;;0.10;;
8502;SDS011;4289;48.664;12.700;2022-11-20T18:09:36;0.10;;;0.10;;
8502;SDS011;4289;48.664;12.700;2022-11-20T18:12:58;0.10;;;0.10;;
8502;SDS011;4289;48.664;12.700;2022-11-20T18:16:21;0.10;;;0.10;;
8502;SDS011;4289;48.664;12.700;2022-11-20T18:19:44;0.13;;;0.13;;
8502;SDS011;4289;48.664;12.700;2022-11-20T18:23:09;0.10;;;0.10;;
8502;SDS011;4289;48.664;12.700;2022-11-20T18:26:33;0.10;;;0.10;;
8502;SDS011;4289;48.664;12.700;2022-11-20T18:29:56;0.10;;;0.10;;
8502;SDS011;4289;48.664;12.700;2022-11-20T18:33:18;0.10;;;0.10;;
8502;SDS011;4289;48.664;12.700;2022-11-20T18:36:41;0.10;;;0.10;;
8502;SDS011;4289;48.664;12.700;2022-11-20T18:40:05;0.10;;;0.10;;
8502;SDS011;4289;48.664;12.700;2022-11-20T18:47:40;0.10;;;0.10;;
8502;SDS011;4289;48.664;12.700;2022-11-20T18:51:03;0.10;;;0.10;;
8502;SDS011;4289;48.664;12.700;2022-11-20T18:54:26;0.10;;;0.10;;
8502;SDS011;4289;48.664;12.700;2022-11-20T18:57:51;0.10;;;0.10;;
8502;SDS011;4289;48.664;12.700;2022-11-20T19:01:15;0.10;;;0.10;;
8502;SDS011;4289;48.664;12.700;2022-11-20T19:04:39;0.10;;;0.10;;
8502;SDS011;4289;48.664;12.700;2022-11-20T19:08:05;0.10;;;0.10;;
8502;SDS011;4289;48.664;12.700;2022-11-20T19:11:31;0.10;;;0.10;;
8502;SDS011;4289;48.664;12.700;2022-11-20T19:15:01;0.10;;;0.10;;
8502;SDS011;4289;48.664;12.700;2022-11-20T19:18:31;0.10;;;0.10;;
8502;SDS011;4289;48.664;12.700;2022-11-20T19:22:04;0.10;;;0.10;;
8502;SDS011;4289;48.664;12.700;2022-11-20T19:25:35;0.20;;;0.20;;
8502;SDS011;4289;48.664;12.700;2022-11-20T19:28:57;0.10;;;0.10;;
8502;SDS011;4289;48.664;12.700;2022-11-20T19:32:22;0.10;;;0.10;;
8502;SDS011;4289;48.664;12.700;2022-11-20T19:35:45;0.10;;;0.10;;
8502;SDS011;4289;48.664;12.700;2022-11-20T19:39:11;0.10;;;0.10;;
8502;SDS011;4289;48.664;12.700;2022-11-20T19:42:33;0.10;;;0.10;;
8502;SDS011;4289;48.664;12.700;2022-11-20T19:45:56;0.10;;;0.10;;
8502;SDS011;4289;48.664;12.700;2022-11-20T19:49:18;0.10;;;0.10;;
8502;SDS011;4289;48.664;12.700;2022-11-20T19:52:41;0.10;;;0.10;;
8502;SDS011;4289;48.664;12.700;2022-11-20T19:56:07;0.10;;;0.10;;
8502;SDS011;4289;48.664;12.700;2022-11-20T19:59:31;0.10;;;0.10;;
8502;SDS011;4289;48.664;12.700;2022-11-20T20:02:54;0.10;;;0.10;;
8502;SDS011;4289;48.664;12.700;2022-11-20T20:06:20;0.10;;;0.10;;
8502;SDS011;4289;48.664;12.700;2022-11-20T20:09:43;0.10;;;0.10;;
8502;SDS011;4289;48.664;12.700;2022-11-20T20:13:21;0.10;;;0.10;;
8502;SDS011;4289;48.664;12.700;2022-11-20T20:20:19;0.10;;;0.10;;
8502;SDS011;4289;48.664;12.700;2022-11-20T20:23:41;0.10;;;0.10;;
8502;SDS011;4289;48.664;12.700;2022-11-20T20:27:04;0.10;;;0.10;;
8502;SDS011;4289;48.664;12.700;2022-11-20T20:30:28;0.10;;;0.10;;
8502;SDS011;4289;48.664;12.700;2022-11-20T20:33:50;0.10;;;0.10;;
8502;SDS011;4289;48.664;12.700;2022-11-20T20:37:15;0.10;;;0.10;;
8502;SDS011;4289;48.664;12.700;2022-11-20T20:40:47;0.10;;;0.10;;
8502;SDS011;4289;48.664;12.700;2022-11-20T20:44:13;0.10;;;0.10;;
8502;SDS011;4289;48.664;12.700;2022-11-20T20:48:00;0.10;;;0.10;;
8502;SDS011;4289;48.664;12.700;2022-11-20T20:51:23;0.10;;;0.10;;
8502;SDS011;4289;48.664;12.700;2022-11-20T20:54:45;0.10;;;0.10;;
8502;SDS011;4289;48.664;12.700;2022-11-20T20:58:08;0.10;;;0.10;;
8502;SDS011;4289;48.664;12.700;2022-11-20T21:01:30;0.10;;;0.10;;
8502;SDS011;4289;48.664;12.700;2022-11-20T21:04:55;0.10;;;0.10;;
8502;SDS011;4289;48.664;12.700;2022-11-20T21:08:18;0.10;;;0.10;;
8502;SDS011;4289;48.664;12.700;2022-11-20T21:11:44;0.10;;;0.10;;
8502;SDS011;4289;48.664;12.700;2022-11-20T21:15:07;0.10;;;0.10;;
8502;SDS011;4289;48.664;12.700;2022-11-20T21:18:31;0.10;;;0.10;;
8502;SDS011;4289;48.664;12.700;2022-11-20T21:21:55;0.10;;;0.10;;
8502;SDS011;4289;48.664;12.700;2022-11-20T21:25:22;0.10;;;0.10;;
8502;SDS011;4289;48.664;12.700;2022-11-20T21:32:40;0.10;;;0.10;;
8502;SDS011;4289;48.664;12.700;2022-11-20T21:36:04;0.13;;;0.13;;
8502;SDS011;4289;48.664;12.700;2022-11-20T21:39:31;0.10;;;0.10;;
8502;SDS011;4289;48.664;12.700;2022-11-20T21:42:53;0.10;;;0.10;;